Aviation Digital Data Service (ADDS)

Output produced by METARs form (1356 UTC 08 May 2021)
found at http://aviationweather.gov/metar/data/
 
KARA 081353Z 13004KT 10SM CLR 23/17 A3009 RMK AO2 SLP190 T02330167
KARA 081120Z 0812/0912 VRB03KT P6SM FEW250 
     FM081500 17012G20KT P6SM FEW250 
     FM090100 16010KT P6SM SKC